TimeEDT,TemperatureF,Dew PointF,Humidity,Sea Level PressureIn,VisibilityMPH,Wind Direction,Wind SpeedMPH,Gust SpeedMPH,PrecipitationIn,Events,Conditions,WindDirDegrees,DateUTC
12:53 AM,62.1,53.1,72,30.21,10.0,Calm,Calm,-,N/A,,Clear,0,2011-10-10 04:53:00
1:53 AM,63.0,53.1,70,30.20,10.0,Calm,Calm,-,N/A,,Clear,0,2011-10-10 05:53:00
2:53 AM,55.9,53.1,90,30.19,9.0,Calm,Calm,-,N/A,,Clear,0,2011-10-10 06:53:00
3:53 AM,62.1,53.1,72,30.17,10.0,Variable,3.5,-,N/A,,Clear,0,2011-10-10 07:53:00
4:53 AM,57.0,51.1,81,30.19,10.0,Calm,Calm,-,N/A,,Clear,0,2011-10-10 08:53:00
5:53 AM,61.0,52.0,72,30.18,10.0,Calm,Calm,-,N/A,,Clear,0,2011-10-10 09:53:00
6:53 AM,59.0,52.0,78,30.18,10.0,Calm,Calm,-,N/A,,Clear,0,2011-10-10 10:53:00
7:53 AM,63.0,53.1,70,30.19,10.0,Calm,Calm,-,N/A,,Clear,0,2011-10-10 11:53:00
8:53 AM,69.1,54.0,58,30.19,10.0,NNW,5.8,-,N/A,,Clear,330,2011-10-10 12:53:00
9:53 AM,73.0,55.0,53,30.19,10.0,WNW,5.8,-,N/A,,Clear,300,2011-10-10 13:53:00
10:53 AM,77.0,55.0,47,30.17,10.0,Variable,5.8,-,N/A,,Clear,0,2011-10-10 14:53:00
11:53 AM,80.1,55.9,43,30.15,10.0,NNW,4.6,-,N/A,,Clear,340,2011-10-10 15:53:00
12:53 PM,82.4,55.4,39,30.13,10.0,Variable,6.9,-,N/A,,Clear,0,2011-10-10 16:53:00
1:53 PM,82.4,57.2,42,30.11,10.0,WNW,9.2,-,N/A,,Clear,290,2011-10-10 17:53:00
2:53 PM,82.9,59.0,44,30.09,10.0,WNW,6.9,-,N/A,,Clear,290,2011-10-10 18:53:00
3:53 PM,82.9,57.9,42,30.09,10.0,West,9.2,-,N/A,,Clear,280,2011-10-10 19:53:00
4:53 PM,81.0,59.0,47,30.08,10.0,WNW,4.6,-,N/A,,Clear,300,2011-10-10 20:53:00
5:53 PM,77.0,60.8,57,30.08,10.0,Calm,Calm,-,N/A,,Clear,0,2011-10-10 21:53:00
6:53 PM,66.9,62.1,84,30.09,10.0,Calm,Calm,-,N/A,,Clear,0,2011-10-10 22:53:00
7:53 PM,64.0,61.0,90,30.09,9.0,Calm,Calm,-,N/A,,Clear,0,2011-10-10 23:53:00
8:53 PM,70.0,57.9,65,30.09,10.0,NW,3.5,-,N/A,,Clear,310,2011-10-11 00:53:00
9:53 PM,69.1,57.0,65,30.11,10.0,Calm,Calm,-,N/A,,Clear,0,2011-10-11 01:53:00
10:53 PM,64.9,57.9,78,30.12,10.0,Calm,Calm,-,N/A,,Clear,0,2011-10-11 02:53:00
11:53 PM,64.0,57.9,80,30.14,10.0,NNE,4.6,-,N/A,,Clear,20,2011-10-11 03:53:00